Hakuhomaru — JJ4011 — position and weather

sailwx.info

Track history (hours):
 
Tides and Currents Weather Stations Pressure Air Temp Water Temp Dewpoint Dewpoint Depression Visibility Wind Speed Wind Dir Waves Ship Positions

Hakuhomaru

Last reported at 2014-Jul-23 07:16 UTC. Time now 2014-Jul-23 11:24 UTC.
Position N 34°41' E 135°12'.

Length 38 m; draft 3.3 m.

Type: Tug. MMSI: 431401584.

Date/timePositionNaut miles runAvg speedWind from/ knotsBaromVisibWave heightAir tempDewpointWater temp
2014-Jul-23 07:16N 34°41' E 135°12'2 3.4
2014-Jul-23 06:33N 34°39' E 135°15'2 2.4
2014-Jul-23 05:33N 34°41' E 135°12'0 0.0
2014-Jul-23 04:33N 34°41' E 135°12'0 0.0
2014-Jul-23 03:33N 34°41' E 135°12'0 0.0
2014-Jul-23 02:33N 34°41' E 135°12'0 0.0
2014-Jul-23 01:33N 34°41' E 135°12'0 0.0
2014-Jul-23 00:33N 34°41' E 135°12'3 3.2
2014-Jul-22 23:33N 34°42' E 135°16'1 1.4
2014-Jul-22 22:33N 34°41' E 135°15'2 2.3
2014-Jul-22 21:33N 34°42' E 135°17'4 4.2
2014-Jul-22 20:33N 34°41' E 135°12'2 0.1
2014-Jul-22 08:33N 34°41' E 135°14'1 0.9
2014-Jul-22 07:33N 34°42' E 135°15'0 0.5
2014-Jul-22 06:33N 34°41' E 135°15'2 2.5
2014-Jul-22 05:34N 34°41' E 135°12'0 0.0
2014-Jul-22 04:34N 34°41' E 135°12'0 0.0
2014-Jul-22 03:32N 34°41' E 135°12'0 0.0
2014-Jul-22 02:33N 34°41' E 135°12'0 0.0
2014-Jul-22 01:33N 34°41' E 135°12'0 0.0
2014-Jul-22 00:34N 34°41' E 135°12'0 0.0
2014-Jul-21 23:34N 34°41' E 135°12'1 1.3
2014-Jul-21 22:34N 34°41' E 135°14'3 2.9
2014-Jul-21 21:34N 34°41' E 135°17'4 4.1
2014-Jul-21 20:34N 34°41' E 135°12'0 0.0
2014-Jul-21 20:18N 34°41' E 135°12'0 0.0
2014-Jul-21 09:10N 34°41' E 135°12'4 6.0
2014-Jul-21 08:33N 34°41' E 135°17'7 7.4
2014-Jul-21 07:33N 34°37' E 135°24'3 2.5
2014-Jul-21 06:32N 34°38' E 135°22'8 8.1
2014-Jul-21 05:33N 34°41' E 135°13'1 0.7
2014-Jul-21 04:33N 34°41' E 135°12'0 0.0
2014-Jul-21 03:33N 34°41' E 135°12'0 0.0
2014-Jul-21 02:33N 34°41' E 135°12'0 0.0
2014-Jul-21 01:33N 34°41' E 135°12'0 0.0
2014-Jul-21 00:33N 34°41' E 135°12'0 0.0
2014-Jul-20 23:33N 34°41' E 135°12'0 0.0
2014-Jul-20 05:33N 34°41' E 135°12'0 0.0
2014-Jul-20 04:33N 34°41' E 135°12'0 0.0
2014-Jul-20 03:33N 34°41' E 135°12'0 0.0
2014-Jul-20 02:33N 34°41' E 135°12'0 0.0
2014-Jul-20 01:33N 34°41' E 135°12'2 2.3
2014-Jul-20 00:33N 34°42' E 135°15'2 2.3
2014-Jul-19 23:33N 34°41' E 135°12'0 0.0
2014-Jul-19 22:33N 34°41' E 135°12'0 0.0
2014-Jul-19 10:12N 34°41' E 135°12'2 3.7
2014-Jul-19 09:33N 34°39' E 135°15'1 0.9
2014-Jul-19 08:33N 34°39' E 135°16'3 3.1
2014-Jul-19 07:33N 34°41' E 135°12'0 0.0
2014-Jul-19 06:33N 34°41' E 135°12'0 0.0
2014-Jul-19 05:33N 34°41' E 135°12'0 0.0
2014-Jul-19 04:33N 34°41' E 135°12'0 0.0
2014-Jul-19 03:33N 34°41' E 135°12'0 0.0
2014-Jul-19 02:33N 34°41' E 135°12'0 0.0
2014-Jul-19 01:33N 34°41' E 135°12'0 0.0
2014-Jul-19 00:33N 34°41' E 135°12'2 1.8
2014-Jul-18 23:33N 34°40' E 135°14'2 1.8
2014-Jul-18 22:33N 34°39' E 135°16'4 3.6
2014-Jul-18 21:33N 34°41' E 135°12'0 0.0
2014-Jul-18 20:33N 34°41' E 135°12'0 0.0
2014-Jul-17 09:15N 34°41' E 135°12'5 7.4
2014-Jul-17 08:32N 34°37' E 135°18'6 3.1
2014-Jul-17 06:31N 34°33' E 135°23'3 2.6
2014-Jul-17 05:31N 34°33' E 135°20'7 7.4
2014-Jul-17 04:32N 34°39' E 135°14'3 2.6
2014-Jul-17 03:33N 34°41' E 135°12'0 0.0
2014-Jul-17 02:33N 34°41' E 135°12'0 0.0
2014-Jul-17 01:33N 34°41' E 135°12'0 0.0
2014-Jul-17 00:33N 34°41' E 135°12'0 0.0
2014-Jul-16 23:31N 34°41' E 135°12'0 0.0
2014-Jul-15 21:12N 34°41' E 135°12'0 0.0
2014-Jul-15 20:33N 34°41' E 135°12'1 0.1
2014-Jul-15 06:33N 34°41' E 135°13'1111.2
2014-Jul-15 05:33N 34°38' E 135°27'2 2.2
2014-Jul-15 04:33N 34°39' E 135°24'10 9.8
2014-Jul-15 03:33N 34°41' E 135°12'0 0.1
2014-Jul-15 02:33N 34°41' E 135°12'0 0.0
2014-Jul-15 01:33N 34°41' E 135°12'0 0.0
2014-Jul-15 00:33N 34°41' E 135°12'0 0.0
2014-Jul-14 23:33N 34°41' E 135°12'0 0.0
2014-Jul-14 22:33N 34°41' E 135°12'  
Track history (hours):
 
Tides and Currents Weather Stations Pressure Air Temp Water Temp Dewpoint Dewpoint Depression Visibility Wind Speed Wind Dir Waves Ship Positions

Hakuhomaru

Last reported at 2014-Jul-23 07:16 UTC. Time now 2014-Jul-23 11:24 UTC.
Position N 34°41' E 135°12'.

Length 38 m; draft 3.3 m.

Type: Tug. MMSI: 431401584.

Date/timePositionNaut miles runAvg speedWind from/ knotsBaromVisibWave heightAir tempDewpointWater temp
2014-Jul-23 07:16N 34°41' E 135°12'2 3.4
2014-Jul-23 06:33N 34°39' E 135°15'2 2.4
2014-Jul-23 05:33N 34°41' E 135°12'0 0.0
2014-Jul-23 04:33N 34°41' E 135°12'0 0.0
2014-Jul-23 03:33N 34°41' E 135°12'0 0.0
2014-Jul-23 02:33N 34°41' E 135°12'0 0.0
2014-Jul-23 01:33N 34°41' E 135°12'0 0.0
2014-Jul-23 00:33N 34°41' E 135°12'3 3.2
2014-Jul-22 23:33N 34°42' E 135°16'1 1.4
2014-Jul-22 22:33N 34°41' E 135°15'2 2.3
2014-Jul-22 21:33N 34°42' E 135°17'4 4.2
2014-Jul-22 20:33N 34°41' E 135°12'2 0.1
2014-Jul-22 08:33N 34°41' E 135°14'1 0.9
2014-Jul-22 07:33N 34°42' E 135°15'0 0.5
2014-Jul-22 06:33N 34°41' E 135°15'2 2.5
2014-Jul-22 05:34N 34°41' E 135°12'0 0.0
2014-Jul-22 04:34N 34°41' E 135°12'0 0.0
2014-Jul-22 03:32N 34°41' E 135°12'0 0.0
2014-Jul-22 02:33N 34°41' E 135°12'0 0.0
2014-Jul-22 01:33N 34°41' E 135°12'0 0.0
2014-Jul-22 00:34N 34°41' E 135°12'0 0.0
2014-Jul-21 23:34N 34°41' E 135°12'1 1.3
2014-Jul-21 22:34N 34°41' E 135°14'3 2.9
2014-Jul-21 21:34N 34°41' E 135°17'4 4.1
2014-Jul-21 20:34N 34°41' E 135°12'0 0.0
2014-Jul-21 20:18N 34°41' E 135°12'0 0.0
2014-Jul-21 09:10N 34°41' E 135°12'4 6.0
2014-Jul-21 08:33N 34°41' E 135°17'7 7.4
2014-Jul-21 07:33N 34°37' E 135°24'3 2.5
2014-Jul-21 06:32N 34°38' E 135°22'8 8.1
2014-Jul-21 05:33N 34°41' E 135°13'1 0.7
2014-Jul-21 04:33N 34°41' E 135°12'0 0.0
2014-Jul-21 03:33N 34°41' E 135°12'0 0.0
2014-Jul-21 02:33N 34°41' E 135°12'0 0.0
2014-Jul-21 01:33N 34°41' E 135°12'0 0.0
2014-Jul-21 00:33N 34°41' E 135°12'0 0.0
2014-Jul-20 23:33N 34°41' E 135°12'0 0.0
2014-Jul-20 05:33N 34°41' E 135°12'0 0.0
2014-Jul-20 04:33N 34°41' E 135°12'0 0.0
2014-Jul-20 03:33N 34°41' E 135°12'0 0.0
2014-Jul-20 02:33N 34°41' E 135°12'0 0.0
2014-Jul-20 01:33N 34°41' E 135°12'2 2.3
2014-Jul-20 00:33N 34°42' E 135°15'2 2.3
2014-Jul-19 23:33N 34°41' E 135°12'0 0.0
2014-Jul-19 22:33N 34°41' E 135°12'0 0.0
2014-Jul-19 10:12N 34°41' E 135°12'2 3.7
2014-Jul-19 09:33N 34°39' E 135°15'1 0.9
2014-Jul-19 08:33N 34°39' E 135°16'3 3.1
2014-Jul-19 07:33N 34°41' E 135°12'0 0.0
2014-Jul-19 06:33N 34°41' E 135°12'0 0.0
2014-Jul-19 05:33N 34°41' E 135°12'0 0.0
2014-Jul-19 04:33N 34°41' E 135°12'0 0.0
2014-Jul-19 03:33N 34°41' E 135°12'0 0.0
2014-Jul-19 02:33N 34°41' E 135°12'0 0.0
2014-Jul-19 01:33N 34°41' E 135°12'0 0.0
2014-Jul-19 00:33N 34°41' E 135°12'2 1.8
2014-Jul-18 23:33N 34°40' E 135°14'2 1.8
2014-Jul-18 22:33N 34°39' E 135°16'4 3.6
2014-Jul-18 21:33N 34°41' E 135°12'0 0.0
2014-Jul-18 20:33N 34°41' E 135°12'0 0.0
2014-Jul-17 09:15N 34°41' E 135°12'5 7.4
2014-Jul-17 08:32N 34°37' E 135°18'6 3.1
2014-Jul-17 06:31N 34°33' E 135°23'3 2.6
2014-Jul-17 05:31N 34°33' E 135°20'7 7.4
2014-Jul-17 04:32N 34°39' E 135°14'3 2.6
2014-Jul-17 03:33N 34°41' E 135°12'0 0.0
2014-Jul-17 02:33N 34°41' E 135°12'0 0.0
2014-Jul-17 01:33N 34°41' E 135°12'0 0.0
2014-Jul-17 00:33N 34°41' E 135°12'0 0.0
2014-Jul-16 23:31N 34°41' E 135°12'0 0.0
2014-Jul-15 21:12N 34°41' E 135°12'0 0.0
2014-Jul-15 20:33N 34°41' E 135°12'1 0.1
2014-Jul-15 06:33N 34°41' E 135°13'1111.2
2014-Jul-15 05:33N 34°38' E 135°27'2 2.2
2014-Jul-15 04:33N 34°39' E 135°24'10 9.8
2014-Jul-15 03:33N 34°41' E 135°12'0 0.1
2014-Jul-15 02:33N 34°41' E 135°12'0 0.0
2014-Jul-15 01:33N 34°41' E 135°12'0 0.0
2014-Jul-15 00:33N 34°41' E 135°12'0 0.0
2014-Jul-14 23:33N 34°41' E 135°12'0 0.0
2014-Jul-14 22:33N 34°41' E 135°12'  

Dump ship's entire track history